Airfield :
LOGIN :

Register | Disclaimer

   EN    FR    IT 

 










Legend :    VFR   Marginal VFR   IFR   Intensive IFR   Very Intensive IFR
Visi :
Ceiling :
>= 8 km
>= 3000ft
5 to 8 km
1000 to 3000 ft
1500m to 5 km
500 to 1000 ft
800 to 1500m
200 to 500 ft
< 800m
< 200 ft
Symbols :   Thunderstorms  Fog  Heavy snow  Heavy precipitations  Wind > 20 kt
SIGMETs :     Misc.  Thunderstorms  Icing  Turbulence  Mountain Waves  Volcanic Ashes







- Airport Elevation : 249 ft


EGOS - RAF Shawbury

CURRENT METAR :
  • 231450Z 14004KT 9999 -DZ FEW010 SCT013 BKN018 16/14 Q1014 GRN TEMPO FEW013 BKN018 WHT

EXPIRED METARs :
  • 231350Z 18008KT 9999 SCT012 BKN015 16/14 Q1014 GRN TEMPO FEW014 BKN018 WHT
  • 231250Z 16007KT 9999 FEW014 BKN017 16/13 Q1014 WHT NOSIG
  • 231211Z 16009KT 9999 FEW013 BKN023 15/13 Q1013 WHT TEMPO FEW023 SCT026 BLU

TAF AMD TAF EGOS
Valid from the 23 at 15:00 until the 24 at 00:00 UTC


231403Z 2315/2324 20008KT 9999 FEW013 BKN016
TEMPO 2315/2324 SCT012 BKN015
No reported NOTAMs for that airfield.



MET'MAP, your aeronautical weather chart ! - Copyright ORBIFLY December 2007 - Disclaimer

ORBIFLY MET'MAP TEAM :

Programming & Development : Alexandra Zaïnal
Concept & Development : Baudouin d'Aumeries
Co-Development & Prog : Marc-Olivier Méhu
Technical & hardware support : Manuel Goepfert

Contact : metmap@orbifly.com




SOURCES & CREDITS :

   NOAA